Time;durP1;ratioP1;P1;durP2;ratioP2;P2;SDS_P1;SDS_P2;PMS_P1;PMS_P2;Temp;Humidity;BMP_temperature;BMP_pressure;BME280_temperature;BME280_humidity;BME280_pressure;Samples;Min_cycle;Max_cycle;Signal;HPM_P1;HPM_P2
2023/01/01 00:01:57;;;;;;;32.03;29.13;;;23.00;62.70;;;;;;4958266;28;20489;-69
2023/01/01 00:04:26;;;;;;;30.70;28.00;;;23.00;62.60;;;;;;4959404;28;20475;-69
2023/01/01 00:06:54;;;;;;;32.13;29.17;;;23.00;62.70;;;;;;4957431;28;20529;-69
2023/01/01 00:12:09;;;;;;;32.40;29.40;;;23.00;62.70;;;;;;4947007;28;20471;-70
2023/01/01 00:14:41;;;;;;;32.30;29.50;;;23.00;62.80;;;;;;4940799;28;20472;-68
2023/01/01 00:17:10;;;;;;;30.70;27.80;;;23.00;62.70;;;;;;4953693;28;20468;-69
2023/01/01 00:19:38;;;;;;;30.60;27.80;;;22.90;62.80;;;;;;4952963;28;20469;-69
2023/01/01 00:22:06;;;;;;;30.77;28.00;;;22.90;62.80;;;;;;4957415;28;20459;-69
2023/01/01 00:24:54;;;;;;;33.20;30.17;;;23.00;62.70;;;;;;4969005;28;20531;-69
2023/01/01 00:27:24;;;;;;;32.60;29.30;;;22.90;62.70;;;;;;4951170;28;20962;-70
2023/01/01 00:29:52;;;;;;;31.80;28.90;;;22.90;62.70;;;;;;4940882;28;20556;-71
2023/01/01 00:32:20;;;;;;;32.73;29.47;;;22.90;62.70;;;;;;4947666;28;20472;-70
2023/01/01 00:34:50;;;;;;;31.73;28.77;;;22.90;62.70;;;;;;4955758;28;20464;-71
2023/01/01 00:37:18;;;;;;;33.73;30.73;;;22.90;62.70;;;;;;4951777;28;21199;-70
2023/01/01 00:39:46;;;;;;;34.07;30.83;;;22.90;62.70;;;;;;4948874;28;20498;-71
2023/01/01 00:42:14;;;;;;;32.97;30.07;;;22.90;62.70;;;;;;4948255;28;20456;-71
2023/01/01 00:44:44;;;;;;;33.17;30.00;;;22.90;62.70;;;;;;4951827;28;20550;-71
2023/01/01 00:47:12;;;;;;;33.20;30.20;;;22.90;62.70;;;;;;4944526;28;20483;-71
2023/01/01 00:49:41;;;;;;;32.60;29.67;;;22.90;62.70;;;;;;4959279;28;20487;-71
2023/01/01 00:52:09;;;;;;;33.73;30.67;;;22.90;62.70;;;;;;4960591;28;20498;-70
2023/01/01 00:54:37;;;;;;;36.27;32.93;;;22.90;62.70;;;;;;4963750;28;20889;-70
2023/01/01 00:57:05;;;;;;;34.13;31.00;;;22.80;62.70;;;;;;4955970;28;20554;-71
2023/01/01 00:59:35;;;;;;;35.90;32.17;;;22.80;62.80;;;;;;4960753;28;20577;-71
2023/01/01 01:02:05;;;;;;;35.50;32.10;;;22.80;62.70;;;;;;4961210;28;20501;-71
2023/01/01 01:04:34;;;;;;;34.53;31.33;;;22.80;62.80;;;;;;4961610;28;20462;-71
2023/01/01 01:07:02;;;;;;;36.70;33.30;;;22.80;62.80;;;;;;4965230;28;20470;-71
2023/01/01 01:09:31;;;;;;;36.50;33.20;;;22.80;62.70;;;;;;4961834;28;21029;-71
2023/01/01 01:11:59;;;;;;;36.93;33.63;;;22.80;62.70;;;;;;4964361;28;20789;-71
2023/01/01 01:14:46;;;;;;;36.77;33.17;;;22.80;62.70;;;;;;4961921;28;20458;-71
2023/01/01 01:17:15;;;;;;;38.77;35.10;;;22.80;62.70;;;;;;4964922;28;20979;-71
2023/01/01 01:19:44;;;;;;;37.17;33.73;;;22.80;62.70;;;;;;4951481;28;20983;-71
2023/01/01 01:22:13;;;;;;;39.00;35.30;;;22.80;62.70;;;;;;4969227;28;20559;-71
2023/01/01 01:24:41;;;;;;;38.67;34.90;;;22.90;62.70;;;;;;4955382;28;20440;-71
2023/01/01 01:27:09;;;;;;;39.57;36.00;;;22.90;62.60;;;;;;4956395;28;20553;-71
2023/01/01 01:29:37;;;;;;;38.57;35.03;;;22.90;62.60;;;;;;4947823;28;20475;-70
2023/01/01 01:32:06;;;;;;;39.90;36.23;;;22.90;62.50;;;;;;4969384;28;20459;-70
2023/01/01 01:34:36;;;;;;;40.00;36.40;;;22.90;62.50;;;;;;4963620;28;20850;-70
2023/01/01 01:37:05;;;;;;;42.10;37.97;;;22.90;62.50;;;;;;4963477;28;20451;-70
2023/01/01 01:39:33;;;;;;;41.13;37.17;;;22.90;62.40;;;;;;4962093;28;20503;-71
2023/01/01 01:42:02;;;;;;;39.90;35.70;;;22.90;62.40;;;;;;4964969;28;20981;-70
2023/01/01 01:44:52;;;;;;;41.83;38.10;;;22.90;62.40;;;;;;4951556;28;20448;-70
2023/01/01 01:47:27;;;;;;;40.97;37.00;;;22.90;62.40;;;;;;4937283;29;20465;-70
2023/01/01 01:50:02;;;;;;;38.40;35.10;;;22.90;62.40;;;;;;4958160;28;20448;-70
2023/01/01 01:52:34;;;;;;;38.37;34.90;;;22.90;62.50;;;;;;4958506;28;20534;-70
2023/01/01 01:55:05;;;;;;;39.60;35.90;;;22.90;62.50;;;;;;4962235;28;20923;-70
2023/01/01 01:57:34;;;;;;;42.57;38.50;;;22.90;62.50;;;;;;4960963;28;20516;-70
2023/01/01 02:00:03;;;;;;;39.50;36.00;;;22.90;62.50;;;;;;4961660;28;20480;-71
2023/01/01 02:02:45;;;;;;;39.20;35.50;;;22.90;62.50;;;;;;4949790;28;20812;-70
2023/01/01 02:05:15;;;;;;;39.57;36.07;;;22.90;62.50;;;;;;4970709;28;20448;-71
2023/01/01 02:07:44;;;;;;;39.10;35.53;;;22.90;62.50;;;;;;4964604;28;20495;-71
2023/01/01 02:10:13;;;;;;;39.37;35.90;;;22.90;62.50;;;;;;4961153;28;20453;-71
2023/01/01 02:12:41;;;;;;;40.20;36.40;;;22.90;62.50;;;;;;4953044;28;20886;-70
2023/01/01 02:15:09;;;;;;;38.83;35.13;;;22.90;62.50;;;;;;4960841;28;20454;-70
2023/01/01 02:17:44;;;;;;;39.77;36.20;;;22.80;62.60;;;;;;4956201;28;20504;-71
2023/01/01 02:20:29;;;;;;;39.67;36.13;;;22.80;62.50;;;;;;4954033;28;20474;-70
2023/01/01 02:23:28;;;;;;;40.47;36.57;;;22.80;62.50;;;;;;4950443;28;20499;-70
2023/01/01 02:26:09;;;;;;;41.30;37.47;;;22.80;62.60;;;;;;4949732;28;20547;-70
2023/01/01 02:28:52;;;;;;;38.97;35.47;;;22.80;62.60;;;;;;4964349;28;20455;-70
2023/01/01 02:31:24;;;;;;;37.40;34.07;;;22.80;62.60;;;;;;4966124;28;20471;-70
2023/01/01 02:33:55;;;;;;;37.83;34.50;;;22.80;62.50;;;;;;4967868;28;20505;-70
2023/01/01 02:36:26;;;;;;;37.73;34.43;;;22.80;62.60;;;;;;4967297;28;20460;-70
2023/01/01 02:38:57;;;;;;;38.30;34.90;;;22.80;62.50;;;;;;4967863;28;20440;-70
2023/01/01 02:41:29;;;;;;;38.53;34.90;;;22.80;62.50;;;;;;4963754;28;21058;-70
2023/01/01 02:43:59;;;;;;;38.73;35.13;;;22.80;62.60;;;;;;4966955;28;20993;-70
2023/01/01 02:46:32;;;;;;;37.97;34.63;;;22.80;62.60;;;;;;4960426;28;20463;-70
2023/01/01 02:49:00;;;;;;;38.07;34.53;;;22.80;62.60;;;;;;4964908;28;20477;-70
2023/01/01 02:51:49;;;;;;;37.70;34.27;;;22.80;62.50;;;;;;4962112;28;20499;-70
2023/01/01 02:54:25;;;;;;;36.93;33.50;;;22.80;62.60;;;;;;4954304;28;21037;-70
2023/01/01 02:57:01;;;;;;;37.70;34.30;;;22.80;62.50;;;;;;4954638;28;20971;-70
2023/01/01 03:02:30;;;;;;;36.20;32.87;;;22.80;62.50;;;;;;4954936;28;20486;-70
2023/01/01 03:05:09;;;;;;;38.77;35.17;;;22.80;62.50;;;;;;4955531;28;20463;-70
2023/01/01 03:07:44;;;;;;;35.73;32.40;;;22.80;62.50;;;;;;4961820;28;20482;-70
2023/01/01 03:10:16;;;;;;;38.33;34.67;;;22.80;62.50;;;;;;4961232;28;21021;-70
2023/01/01 03:12:51;;;;;;;37.00;33.50;;;22.80;62.50;;;;;;4966423;28;20456;-70
2023/01/01 03:15:27;;;;;;;37.07;33.70;;;22.80;62.50;;;;;;4962730;28;21005;-70
2023/01/01 03:18:02;;;;;;;36.23;32.93;;;22.80;62.50;;;;;;4956925;28;20499;-70
2023/01/01 03:20:36;;;;;;;35.13;32.03;;;22.80;62.50;;;;;;4963286;28;20462;-70
2023/01/01 03:23:14;;;;;;;34.47;31.37;;;22.80;62.40;;;;;;4958279;28;20984;-70
2023/01/01 03:25:46;;;;;;;36.10;32.83;;;22.80;62.40;;;;;;4951161;28;20876;-70
2023/01/01 03:28:18;;;;;;;36.10;32.77;;;22.80;62.40;;;;;;4961430;28;20475;-70
2023/01/01 03:30:49;;;;;;;35.47;32.13;;;22.70;62.40;;;;;;4971370;28;20807;-70
2023/01/01 03:33:22;;;;;;;35.80;32.50;;;22.70;62.40;;;;;;4963273;28;20480;-71
2023/01/01 03:35:57;;;;;;;34.93;31.60;;;22.70;62.40;;;;;;4967072;28;20455;-70
2023/01/01 03:38:30;;;;;;;34.63;31.43;;;22.80;62.40;;;;;;4953955;28;20468;-70
2023/01/01 03:41:10;;;;;;;33.63;30.43;;;22.80;62.40;;;;;;4964673;28;20578;-71
2023/01/01 03:43:48;;;;;;;32.90;29.77;;;22.80;62.40;;;;;;4950662;28;20463;-70
2023/01/01 03:46:21;;;;;;;33.27;30.50;;;22.80;62.40;;;;;;4958925;28;20466;-71
2023/01/01 03:48:59;;;;;;;32.50;29.40;;;22.80;62.30;;;;;;4952911;28;20896;-70
2023/01/01 03:51:45;;;;;;;33.17;29.87;;;22.80;62.20;;;;;;4967740;28;20550;-70
2023/01/01 03:54:23;;;;;;;33.13;30.20;;;22.90;62.10;;;;;;4956600;28;20924;-70
2023/01/01 03:56:58;;;;;;;32.27;29.27;;;22.90;62.10;;;;;;4965743;28;20468;-70
2023/01/01 03:59:32;;;;;;;32.90;29.80;;;22.90;62.00;;;;;;4974634;28;20461;-70
2023/01/01 04:02:07;;;;;;;31.47;28.67;;;22.90;62.00;;;;;;4971825;28;20564;-70
2023/01/01 04:04:35;;;;;;;35.07;31.77;;;22.90;62.00;;;;;;4974618;28;20455;-70
2023/01/01 04:07:04;;;;;;;30.97;28.37;;;22.90;62.00;;;;;;4972852;28;20479;-70
2023/01/01 04:09:47;;;;;;;32.20;29.33;;;22.90;62.00;;;;;;4972541;28;20459;-71
2023/01/01 04:12:17;;;;;;;32.50;29.70;;;22.90;62.00;;;;;;4961311;28;20513;-70
2023/01/01 04:14:45;;;;;;;30.73;28.07;;;22.80;62.00;;;;;;4962223;28;20560;-70
2023/01/01 04:17:14;;;;;;;32.17;29.10;;;22.80;62.00;;;;;;4967262;28;20920;-70
2023/01/01 04:19:42;;;;;;;32.10;29.23;;;22.80;62.10;;;;;;4967809;28;20478;-70
2023/01/01 04:22:16;;;;;;;30.03;27.43;;;22.80;62.10;;;;;;4972690;28;20475;-70
2023/01/01 04:24:45;;;;;;;31.33;28.53;;;22.80;62.10;;;;;;4957282;28;20471;-70
2023/01/01 04:27:13;;;;;;;30.70;27.73;;;22.80;62.10;;;;;;4954324;28;20484;-70
2023/01/01 04:29:41;;;;;;;32.27;29.17;;;22.80;62.10;;;;;;4949543;28;20496;-70
2023/01/01 04:32:09;;;;;;;29.53;26.83;;;22.80;62.10;;;;;;4959477;28;20555;-70
2023/01/01 04:34:39;;;;;;;29.30;26.60;;;22.80;62.20;;;;;;4952508;28;20464;-70
2023/01/01 04:37:07;;;;;;;30.30;27.40;;;22.80;62.20;;;;;;4949877;28;21155;-71
2023/01/01 04:39:40;;;;;;;30.13;27.57;;;22.80;62.20;;;;;;4948425;28;20472;-70
2023/01/01 04:42:38;;;;;;;28.77;26.30;;;22.70;62.10;;;;;;4950279;28;20485;-71
2023/01/01 04:45:11;;;;;;;30.07;27.37;;;22.70;62.20;;;;;;4943822;28;20460;-70
2023/01/01 04:47:40;;;;;;;29.90;27.20;;;22.70;62.20;;;;;;4943693;28;20575;-70
2023/01/01 04:50:10;;;;;;;29.73;27.00;;;22.70;62.20;;;;;;4945629;28;20457;-70
2023/01/01 04:52:38;;;;;;;28.43;25.83;;;22.70;62.20;;;;;;4945160;28;20525;-70
2023/01/01 04:55:07;;;;;;;27.20;24.90;;;22.70;62.20;;;;;;4944692;28;21035;-70
2023/01/01 04:57:35;;;;;;;28.47;26.07;;;22.70;62.20;;;;;;4943721;28;20563;-71
2023/01/01 05:00:05;;;;;;;27.50;25.10;;;22.70;62.20;;;;;;4944011;28;21038;-71
2023/01/01 05:02:33;;;;;;;28.50;25.80;;;22.70;62.20;;;;;;4944363;28;20576;-70
2023/01/01 05:05:01;;;;;;;26.10;23.60;;;22.70;62.20;;;;;;4941083;28;20461;-70
2023/01/01 05:07:32;;;;;;;28.33;26.00;;;22.70;62.20;;;;;;4952763;28;20474;-70
2023/01/01 05:10:00;;;;;;;26.07;23.70;;;22.70;62.20;;;;;;4965917;28;20446;-71
2023/01/01 05:12:30;;;;;;;26.53;24.13;;;22.70;62.20;;;;;;4959322;28;20443;-71
2023/01/01 05:14:58;;;;;;;25.57;23.47;;;22.70;62.20;;;;;;4965396;28;20805;-71
2023/01/01 05:17:26;;;;;;;26.67;24.30;;;22.70;62.20;;;;;;4950983;28;20544;-71
2023/01/01 05:19:54;;;;;;;25.50;23.07;;;22.70;62.20;;;;;;4958645;28;20458;-71
2023/01/01 05:22:23;;;;;;;25.53;23.23;;;22.70;62.20;;;;;;4961186;28;20470;-71
2023/01/01 05:24:53;;;;;;;25.97;23.47;;;22.70;62.20;;;;;;4956022;28;20557;-71
2023/01/01 05:27:21;;;;;;;24.80;22.70;;;22.70;62.20;;;;;;4962807;28;20451;-71
2023/01/01 05:29:49;;;;;;;24.50;22.00;;;22.80;62.20;;;;;;4961394;28;20470;-71
2023/01/01 05:32:18;;;;;;;27.00;24.53;;;22.80;62.20;;;;;;4946700;28;20546;-72
2023/01/01 05:34:46;;;;;;;25.53;23.33;;;22.80;62.30;;;;;;4957743;28;21001;-71
2023/01/01 05:37:14;;;;;;;24.50;22.20;;;22.80;62.20;;;;;;4965333;28;20474;-71
2023/01/01 05:39:42;;;;;;;24.23;22.03;;;22.80;62.20;;;;;;4962083;28;20501;-71
2023/01/01 05:42:12;;;;;;;24.70;22.60;;;22.90;62.20;;;;;;4962565;28;21169;-71
2023/01/01 05:44:40;;;;;;;23.80;21.70;;;22.90;62.10;;;;;;4964695;28;20461;-70
2023/01/01 05:47:08;;;;;;;24.87;22.77;;;22.90;62.10;;;;;;4963408;28;20460;-70
2023/01/01 05:49:36;;;;;;;24.53;22.27;;;22.90;62.10;;;;;;4959731;28;20454;-70
2023/01/01 05:52:04;;;;;;;23.27;21.33;;;22.90;62.00;;;;;;4959292;28;20500;-71
2023/01/01 05:54:33;;;;;;;23.83;21.40;;;22.90;62.10;;;;;;4956461;28;20563;-70
2023/01/01 05:57:01;;;;;;;23.60;21.70;;;22.90;62.10;;;;;;4958645;28;20493;-70
2023/01/01 05:59:30;;;;;;;23.50;21.47;;;22.90;62.10;;;;;;4961467;28;20495;-70
2023/01/01 06:01:58;;;;;;;24.50;22.47;;;22.90;62.10;;;;;;4955765;28;20852;-71
2023/01/01 06:04:27;;;;;;;23.97;21.97;;;22.90;62.10;;;;;;4964146;28;20854;-71
2023/01/01 06:06:55;;;;;;;24.17;21.87;;;22.90;62.20;;;;;;4957484;28;20463;-71
2023/01/01 06:09:23;;;;;;;23.67;21.57;;;22.80;62.20;;;;;;4957033;28;20455;-70
2023/01/01 06:11:51;;;;;;;23.57;21.40;;;22.80;62.20;;;;;;4968423;28;20864;-70
2023/01/01 06:14:20;;;;;;;22.40;20.53;;;22.80;62.20;;;;;;4955999;28;20473;-70
2023/01/01 06:16:50;;;;;;;23.60;21.57;;;22.80;62.30;;;;;;4966044;28;20502;-70
2023/01/01 06:19:18;;;;;;;22.53;20.40;;;22.80;62.30;;;;;;4958183;28;20959;-71
2023/01/01 06:21:47;;;;;;;23.43;21.33;;;22.80;62.30;;;;;;4966334;28;20463;-71
2023/01/01 06:24:16;;;;;;;22.73;20.73;;;22.80;62.30;;;;;;4967117;28;21029;-70
2023/01/01 06:26:44;;;;;;;23.23;21.23;;;22.80;62.30;;;;;;4947500;28;20487;-70
2023/01/01 06:29:12;;;;;;;21.90;20.00;;;22.80;62.40;;;;;;4963938;28;20444;-70
2023/01/01 06:31:40;;;;;;;22.27;20.17;;;22.70;62.30;;;;;;4956338;28;20530;-71
2023/01/01 06:34:09;;;;;;;22.77;20.73;;;22.70;62.30;;;;;;4962320;28;20592;-70
2023/01/01 06:36:38;;;;;;;20.50;18.67;;;22.70;62.30;;;;;;4963661;28;20446;-70
2023/01/01 06:39:06;;;;;;;21.90;19.90;;;22.70;62.30;;;;;;4962015;28;20461;-70
2023/01/01 06:41:34;;;;;;;21.53;19.60;;;22.70;62.30;;;;;;4963578;28;21145;-70
2023/01/01 06:44:04;;;;;;;20.53;18.73;;;22.70;62.30;;;;;;4953214;28;20482;-70
2023/01/01 06:46:33;;;;;;;22.73;20.80;;;22.70;62.30;;;;;;4956581;28;20530;-70
2023/01/01 06:49:03;;;;;;;21.77;19.60;;;22.70;62.30;;;;;;4965948;28;20470;-70
2023/01/01 06:51:36;;;;;;;19.60;18.00;;;22.70;62.30;;;;;;4970118;28;20486;-70
2023/01/01 06:54:05;;;;;;;19.93;18.23;;;22.70;62.40;;;;;;4954398;28;20547;-70
2023/01/01 06:56:34;;;;;;;21.17;19.37;;;22.70;62.40;;;;;;4953156;28;20474;-70
2023/01/01 06:59:04;;;;;;;20.50;18.60;;;22.60;62.40;;;;;;4965030;28;20515;-71
2023/01/01 07:01:35;;;;;;;20.70;18.73;;;22.60;62.40;;;;;;4954925;28;20463;-71
2023/01/01 07:04:06;;;;;;;18.90;17.40;;;22.70;62.40;;;;;;4955703;28;20543;-70
2023/01/01 07:06:36;;;;;;;19.80;18.10;;;22.70;62.40;;;;;;4957442;28;20515;-70
2023/01/01 07:09:05;;;;;;;19.43;17.67;;;22.70;62.40;;;;;;4966041;28;21348;-71
2023/01/01 07:11:34;;;;;;;19.57;17.87;;;22.70;62.40;;;;;;4957500;28;20531;-70
2023/01/01 07:14:02;;;;;;;18.80;17.30;;;22.70;62.40;;;;;;4958086;28;20518;-70
2023/01/01 07:16:30;;;;;;;19.50;17.67;;;22.70;62.40;;;;;;4946226;28;20566;-70
2023/01/01 07:19:00;;;;;;;19.53;17.80;;;22.80;62.30;;;;;;4956287;28;20456;-71
2023/01/01 07:21:30;;;;;;;18.77;16.97;;;22.80;62.30;;;;;;4956723;28;20891;-71
2023/01/01 07:24:02;;;;;;;18.03;16.50;;;22.80;62.20;;;;;;4957881;28;20480;-70
2023/01/01 07:26:32;;;;;;;18.83;16.93;;;22.80;62.20;;;;;;4965109;28;21066;-70
2023/01/01 07:29:00;;;;;;;18.87;17.17;;;22.80;62.10;;;;;;4963223;28;20439;-70
2023/01/01 07:31:36;;;;;;;18.93;17.13;;;22.80;62.10;;;;;;4954839;28;20527;-71
2023/01/01 07:34:05;;;;;;;16.67;15.27;;;22.80;62.10;;;;;;4966718;28;20938;-71
2023/01/01 07:36:33;;;;;;;15.90;14.60;;;22.80;62.10;;;;;;4971642;28;20497;-71
2023/01/01 07:39:03;;;;;;;17.67;16.07;;;22.80;62.10;;;;;;4972281;28;20475;-71
2023/01/01 07:41:31;;;;;;;16.53;15.00;;;22.80;62.10;;;;;;4965625;28;20491;-71
2023/01/01 07:43:59;;;;;;;18.70;17.00;;;22.80;62.10;;;;;;4955894;28;20575;-71
2023/01/01 07:46:27;;;;;;;17.07;15.53;;;22.70;62.10;;;;;;4965049;28;20556;-70
2023/01/01 07:48:56;;;;;;;17.17;15.67;;;22.70;62.00;;;;;;4960127;28;20481;-70
2023/01/01 07:51:24;;;;;;;16.30;15.00;;;22.70;62.10;;;;;;4965352;28;20482;-70
2023/01/01 07:53:52;;;;;;;17.17;15.67;;;22.70;62.10;;;;;;4929968;28;20465;-70
2023/01/01 07:56:22;;;;;;;16.10;14.63;;;22.70;62.10;;;;;;4946536;28;20475;-70
2023/01/01 07:58:50;;;;;;;17.67;16.07;;;22.70;62.10;;;;;;4941543;28;20468;-70
2023/01/01 08:01:19;;;;;;;15.80;14.50;;;22.70;62.10;;;;;;4957839;28;20459;-70
2023/01/01 08:03:52;;;;;;;16.57;15.17;;;22.70;62.00;;;;;;4965822;28;20580;-70
2023/01/01 08:06:21;;;;;;;16.10;14.80;;;22.70;62.10;;;;;;4951059;28;20854;-71
2023/01/01 08:08:49;;;;;;;16.87;15.57;;;22.70;62.10;;;;;;4969150;28;20538;-70
2023/01/01 08:11:19;;;;;;;16.07;14.60;;;22.70;62.10;;;;;;4950181;29;20458;-70
2023/01/01 08:13:49;;;;;;;15.37;14.07;;;22.70;62.10;;;;;;4956105;28;20455;-70
2023/01/01 08:16:17;;;;;;;15.70;14.40;;;22.70;62.10;;;;;;4968121;28;20451;-70
2023/01/01 08:18:47;;;;;;;15.97;14.60;;;22.70;62.10;;;;;;4968954;28;20483;-71
2023/01/01 08:21:15;;;;;;;15.07;13.87;;;22.70;62.10;;;;;;4970287;28;20481;-70
2023/01/01 08:23:43;;;;;;;15.90;14.50;;;22.70;62.10;;;;;;4961325;28;20487;-70
2023/01/01 08:26:15;;;;;;;16.10;14.57;;;22.70;62.20;;;;;;4969580;28;20454;-71
2023/01/01 08:28:44;;;;;;;16.40;14.93;;;22.70;62.20;;;;;;4965213;28;20471;-71
2023/01/01 08:31:13;;;;;;;14.87;13.60;;;22.80;62.20;;;;;;4954954;28;20541;-70
2023/01/01 08:33:41;;;;;;;15.40;14.10;;;22.80;62.20;;;;;;4969759;28;20463;-70
2023/01/01 08:36:12;;;;;;;15.30;14.00;;;22.80;62.20;;;;;;4966027;28;20456;-70
2023/01/01 08:38:41;;;;;;;14.07;12.83;;;22.80;62.20;;;;;;4963228;28;20443;-70
2023/01/01 08:41:09;;;;;;;14.73;13.40;;;22.80;62.10;;;;;;4960366;28;20978;-71
2023/01/01 08:43:37;;;;;;;15.77;14.40;;;22.90;62.10;;;;;;4956602;28;20566;-70
2023/01/01 08:46:05;;;;;;;15.43;14.03;;;22.90;62.00;;;;;;4972605;28;21042;-70
2023/01/01 08:48:35;;;;;;;14.90;13.70;;;22.90;62.00;;;;;;4959155;28;20442;-70
2023/01/01 08:51:03;;;;;;;14.00;12.70;;;22.90;61.90;;;;;;4967470;28;20831;-71
2023/01/01 08:53:31;;;;;;;14.80;13.50;;;22.90;61.90;;;;;;4968083;28;20444;-70
2023/01/01 08:56:02;;;;;;;14.30;13.10;;;22.90;61.90;;;;;;4952784;28;20464;-70
2023/01/01 08:58:31;;;;;;;15.60;14.30;;;22.90;61.90;;;;;;4955513;28;20451;-70
2023/01/01 09:00:59;;;;;;;13.03;11.93;;;22.90;61.90;;;;;;4962262;28;20554;-71
2023/01/01 09:03:28;;;;;;;14.23;13.03;;;22.90;61.90;;;;;;4965299;28;20447;-70
2023/01/01 09:05:58;;;;;;;13.80;12.70;;;22.90;61.80;;;;;;4960826;28;20451;-71
2023/01/01 09:08:27;;;;;;;13.80;12.40;;;22.90;61.80;;;;;;4961013;28;20467;-70
2023/01/01 09:11:00;;;;;;;14.30;13.20;;;22.90;61.90;;;;;;4949431;28;20487;-70
2023/01/01 09:13:29;;;;;;;13.77;12.57;;;22.90;61.90;;;;;;4948798;28;20474;-70
2023/01/01 09:16:22;;;;;;;14.10;12.90;;;22.90;61.90;;;;;;4949173;28;20453;-70
2023/01/01 09:18:51;;;;;;;11.87;10.87;;;22.90;61.80;;;;;;4951112;28;20457;-70
2023/01/01 09:21:20;;;;;;;14.40;13.30;;;22.90;61.80;;;;;;4954264;28;20558;-70
2023/01/01 09:23:48;;;;;;;13.53;12.53;;;22.90;61.80;;;;;;4954985;28;20954;-70
2023/01/01 09:26:17;;;;;;;13.10;12.10;;;22.90;61.80;;;;;;4951881;28;20464;-70
2023/01/01 09:28:45;;;;;;;14.57;13.27;;;22.90;61.70;;;;;;4951478;28;20466;-70
2023/01/01 09:31:13;;;;;;;12.67;11.67;;;22.90;61.70;;;;;;4957338;28;20440;-70
2023/01/01 09:33:41;;;;;;;14.10;12.90;;;22.90;61.70;;;;;;4954380;28;20831;-70
2023/01/01 09:36:14;;;;;;;12.43;11.43;;;22.90;61.70;;;;;;4953853;28;20548;-70
2023/01/01 09:38:49;;;;;;;13.70;12.53;;;22.90;61.70;;;;;;4954043;28;20477;-70
2023/01/01 09:41:22;;;;;;;12.43;11.23;;;22.90;61.60;;;;;;4954642;28;20504;-70
2023/01/01 09:43:59;;;;;;;12.37;11.37;;;22.90;61.60;;;;;;4954900;28;20449;-70
2023/01/01 09:46:28;;;;;;;13.23;12.13;;;22.90;61.60;;;;;;4955931;28;20452;-70
2023/01/01 09:49:02;;;;;;;12.60;11.47;;;22.90;61.60;;;;;;4953582;28;20463;-70
2023/01/01 09:51:35;;;;;;;12.43;11.33;;;23.00;61.60;;;;;;4954791;28;21006;-70
2023/01/01 09:54:24;;;;;;;12.90;11.87;;;23.00;61.60;;;;;;4948271;28;20461;-70
2023/01/01 09:56:57;;;;;;;12.57;11.57;;;23.00;61.60;;;;;;4952417;28;20459;-70
2023/01/01 09:59:25;;;;;;;12.57;11.57;;;23.00;61.60;;;;;;4956566;28;20948;-70
2023/01/01 10:02:00;;;;;;;12.60;11.50;;;23.10;61.50;;;;;;4944218;28;20482;-70
2023/01/01 10:04:48;;;;;;;12.40;11.30;;;23.10;61.50;;;;;;4940194;28;20486;-70
2023/01/01 10:07:24;;;;;;;11.97;10.97;;;23.20;61.40;;;;;;4950334;28;20553;-69
2023/01/01 10:10:02;;;;;;;12.33;11.33;;;23.20;61.30;;;;;;4947365;28;20451;-70
2023/01/01 10:12:39;;;;;;;11.93;10.83;;;23.30;61.20;;;;;;4947911;28;20523;-69
2023/01/01 10:15:15;;;;;;;12.00;11.00;;;23.30;61.00;;;;;;4946159;28;20469;-70
2023/01/01 10:17:47;;;;;;;11.93;10.83;;;23.40;60.90;;;;;;4946791;28;20458;-69
2023/01/01 10:20:20;;;;;;;10.87;9.93;;;23.40;60.80;;;;;;4942853;28;20464;-69
2023/01/01 10:22:52;;;;;;;12.97;11.87;;;23.50;60.80;;;;;;4943501;28;20469;-69
2023/01/01 10:25:25;;;;;;;11.57;10.57;;;23.50;60.60;;;;;;4940535;28;20565;-70
2023/01/01 10:27:58;;;;;;;11.50;10.50;;;23.50;60.70;;;;;;4944982;28;21595;-69
2023/01/01 10:30:28;;;;;;;11.60;10.70;;;23.50;60.60;;;;;;4955594;28;20456;-69
2023/01/01 10:32:58;;;;;;;12.40;11.30;;;23.60;60.50;;;;;;4947530;28;20520;-70
2023/01/01 10:35:33;;;;;;;10.20;9.30;;;23.60;60.40;;;;;;4947594;28;20562;-69
2023/01/01 10:38:02;;;;;;;10.77;9.77;;;23.60;60.40;;;;;;4945533;28;20469;-69
2023/01/01 10:40:32;;;;;;;10.30;9.40;;;23.60;60.40;;;;;;4948413;28;20573;-69
2023/01/01 10:43:02;;;;;;;10.43;9.53;;;23.70;60.40;;;;;;4944685;28;20982;-70
2023/01/01 10:45:33;;;;;;;12.03;11.13;;;23.70;60.50;;;;;;4949403;28;20476;-70
2023/01/01 10:48:13;;;;;;;10.30;9.40;;;23.70;60.40;;;;;;4941720;28;20468;-70
2023/01/01 10:50:48;;;;;;;10.70;9.80;;;23.70;60.40;;;;;;4938990;28;20499;-70
2023/01/01 10:53:23;;;;;;;11.00;10.00;;;23.80;60.20;;;;;;4943120;28;20523;-70
2023/01/01 10:56:00;;;;;;;10.63;9.77;;;23.80;60.20;;;;;;4943337;28;20467;-70
2023/01/01 10:58:36;;;;;;;10.00;9.27;;;23.80;60.50;;;;;;4943066;28;20460;-70
2023/01/01 11:01:06;;;;;;;10.60;9.70;;;23.80;60.20;;;;;;4941878;28;20455;-70
2023/01/01 11:03:35;;;;;;;10.80;10.00;;;23.80;60.30;;;;;;4952450;28;20546;-69
2023/01/01 11:06:19;;;;;;;10.40;9.50;;;23.80;60.40;;;;;;4946321;28;20478;-69
2023/01/01 11:08:50;;;;;;;9.53;8.70;;;23.80;60.80;;;;;;4957942;28;20459;-70
2023/01/01 11:11:27;;;;;;;10.93;10.03;;;23.80;60.90;;;;;;4949899;28;20455;-70
2023/01/01 11:13:58;;;;;;;11.00;10.10;;;23.80;60.60;;;;;;4952401;28;20444;-70
2023/01/01 11:16:27;;;;;;;9.70;9.00;;;23.80;60.80;;;;;;4947638;28;20445;-69
2023/01/01 11:19:02;;;;;;;9.10;8.40;;;23.80;60.50;;;;;;4948120;28;20771;-69
2023/01/01 11:21:31;;;;;;;10.00;9.20;;;23.90;60.30;;;;;;4947851;28;20455;-70
2023/01/01 11:24:19;;;;;;;9.97;9.07;;;24.00;60.10;;;;;;4947997;28;20498;-70
2023/01/01 11:26:49;;;;;;;9.33;8.53;;;24.10;59.80;;;;;;4953055;28;20533;-70
2023/01/01 11:29:27;;;;;;;9.87;9.13;;;24.20;59.70;;;;;;4936080;28;20506;-70
2023/01/01 11:31:56;;;;;;;9.70;9.00;;;24.20;59.70;;;;;;4951617;28;20519;-69
2023/01/01 11:34:31;;;;;;;9.13;8.43;;;24.20;59.70;;;;;;4950791;28;20803;-70
2023/01/01 11:37:26;;;;;;;9.20;8.50;;;24.30;59.50;;;;;;4953889;28;20539;-70
2023/01/01 11:39:57;;;;;;;8.60;8.00;;;24.40;59.50;;;;;;4954075;28;20484;-69
2023/01/01 11:42:29;;;;;;;8.60;8.00;;;24.40;59.20;;;;;;4947417;28;20441;-69
2023/01/01 11:45:00;;;;;;;9.77;9.07;;;24.40;59.10;;;;;;4950366;28;20444;-70
2023/01/01 11:47:31;;;;;;;9.63;8.93;;;24.50;59.00;;;;;;4947458;28;20564;-70
2023/01/01 11:50:07;;;;;;;9.83;9.03;;;24.60;59.10;;;;;;4957539;28;20831;-69
2023/01/01 11:52:39;;;;;;;8.87;8.27;;;24.60;58.90;;;;;;4960269;28;20550;-68
2023/01/01 11:55:16;;;;;;;10.17;9.37;;;24.70;58.60;;;;;;4951837;28;20456;-69
2023/01/01 11:57:58;;;;;;;9.13;8.33;;;24.70;58.60;;;;;;4946353;28;20448;-69
2023/01/01 12:00:30;;;;;;;9.50;8.80;;;24.80;58.40;;;;;;4955199;28;20992;-69
2023/01/01 12:03:01;;;;;;;8.40;7.70;;;24.90;58.30;;;;;;4943929;28;20496;-68
2023/01/01 12:05:47;;;;;;;8.43;7.73;;;24.90;58.30;;;;;;4947052;28;21036;-69
2023/01/01 12:08:23;;;;;;;8.20;7.50;;;25.00;58.10;;;;;;4929125;28;20482;-70
2023/01/01 12:10:55;;;;;;;8.10;7.40;;;25.00;57.90;;;;;;4948211;28;20551;-70
2023/01/01 12:13:29;;;;;;;8.23;7.63;;;25.10;57.80;;;;;;4949078;28;20528;-70
2023/01/01 12:16:06;;;;;;;7.57;6.97;;;25.10;57.70;;;;;;4951474;28;20541;-70
2023/01/01 12:18:43;;;;;;;8.30;7.67;;;25.10;57.70;;;;;;4950503;28;20461;-70
2023/01/01 12:21:17;;;;;;;9.07;8.37;;;25.20;57.80;;;;;;4954240;28;20525;-70
2023/01/01 12:23:45;;;;;;;7.83;7.10;;;25.20;57.60;;;;;;4951731;28;20804;-70
2023/01/01 12:26:22;;;;;;;8.67;7.97;;;25.20;57.60;;;;;;4958140;28;20486;-70
2023/01/01 12:29:20;;;;;;;8.50;7.70;;;25.30;57.50;;;;;;4955276;28;20549;-70
2023/01/01 12:32:00;;;;;;;7.80;7.20;;;25.20;57.50;;;;;;4939443;28;20526;-70
2023/01/01 12:34:34;;;;;;;7.53;6.93;;;25.20;57.60;;;;;;4943666;28;20675;-70
2023/01/01 12:37:14;;;;;;;7.60;6.90;;;25.20;57.60;;;;;;4950645;28;20470;-70
2023/01/01 12:40:14;;;;;;;7.00;6.50;;;25.20;57.70;;;;;;4948992;28;20489;-70
2023/01/01 12:43:01;;;;;;;7.80;7.10;;;25.20;57.70;;;;;;4947602;28;20457;-70
2023/01/01 12:46:08;;;;;;;7.87;7.17;;;25.30;57.70;;;;;;4954860;28;20529;-70
2023/01/01 12:49:23;;;;;;;7.70;7.10;;;25.30;57.60;;;;;;4945068;28;20881;-70
2023/01/01 12:52:03;;;;;;;6.90;6.40;;;25.30;57.60;;;;;;4883072;29;20509;-70
2023/01/01 12:54:59;;;;;;;7.83;7.13;;;25.30;57.60;;;;;;4950944;28;20478;-70
2023/01/01 12:57:31;;;;;;;7.23;6.73;;;25.30;57.60;;;;;;4953279;28;20470;-70
2023/01/01 13:00:03;;;;;;;6.73;6.23;;;25.30;57.60;;;;;;4951409;28;20466;-70
2023/01/01 13:02:35;;;;;;;7.40;6.60;;;25.30;57.80;;;;;;4953979;28;20870;-70